createdAt,value
2016-11-09T18:32:17.776Z,110
2016-11-09T18:33:29.209Z,105
2016-11-09T18:34:41.455Z,100
2016-11-09T18:35:54.854Z,85
2016-11-09T18:37:08.047Z,100
2016-11-09T18:38:21.541Z,110
2016-11-09T18:39:35.354Z,110
2016-11-09T18:40:48.366Z,125
2016-11-09T18:42:01.528Z,120
2016-11-09T18:43:14.600Z,125
2016-11-09T18:44:27.021Z,135
2016-11-09T18:45:39.562Z,130
2016-11-09T18:46:52.029Z,130
2016-11-09T18:48:05.816Z,130
2016-11-09T18:49:18.367Z,135
2016-11-09T18:50:31.411Z,145
2016-11-09T18:51:44.395Z,155
2016-11-09T18:52:57.402Z,165
2016-11-09T18:54:10.479Z,170
2016-11-09T18:55:23.372Z,170
2016-11-09T18:56:36.403Z,175
2016-11-09T18:57:49.905Z,150
2016-11-09T18:59:03.580Z,135
2016-11-09T19:00:15.007Z,105
2016-11-09T19:01:27.465Z,105
2016-11-09T19:02:40.523Z,85
2016-11-09T19:03:52.943Z,75
2016-11-09T19:05:05.645Z,70
2016-11-09T19:06:18.609Z,65
2016-11-09T19:07:31.088Z,55
2016-11-09T19:08:43.609Z,40
2016-11-09T19:09:56.732Z,35
2016-11-09T19:11:09.732Z,30
2016-11-09T19:12:22.695Z,35
2016-11-09T19:13:35.756Z,35
2016-11-09T19:14:49.393Z,35
2016-11-09T19:16:01.821Z,30
2016-11-09T19:17:14.529Z,25
2016-11-09T19:18:27.603Z,20
2016-11-09T19:19:40.677Z,15
2016-11-09T19:20:53.816Z,15
2016-11-09T19:22:06.353Z,15
2016-11-09T19:23:19.386Z,20
2016-11-09T19:24:32.855Z,15
2016-11-09T19:25:46.447Z,15
2016-11-09T19:26:58.414Z,10
2016-11-09T19:28:11.999Z,10
2016-11-09T19:29:24.912Z,5
2016-11-09T19:30:38.591Z,5
2016-11-09T19:31:51.154Z,5
2016-11-09T19:33:03.678Z,5
2016-11-09T19:34:16.649Z,5
2016-11-09T19:35:29.107Z,5
2016-11-09T19:36:41.560Z,5
2016-11-09T19:37:55.019Z,5
2016-11-09T19:39:07.482Z,0
2016-11-09T19:40:19.933Z,0
2016-11-09T19:41:32.417Z,0
2016-11-09T19:42:46.136Z,0
2016-11-09T19:43:59.386Z,0
2016-11-09T19:45:12.844Z,0
2016-11-09T19:46:25.723Z,0
2016-11-09T19:47:38.157Z,0
2016-11-09T19:48:51.065Z,0
2016-11-09T19:50:04.538Z,0
2016-11-09T19:51:16.992Z,0
2016-11-09T19:52:29.948Z,0
2016-11-09T19:53:43.527Z,0
2016-11-09T19:54:55.964Z,0
2016-11-09T19:56:08.970Z,5
2016-11-09T19:57:21.413Z,5
2016-11-09T19:58:34.030Z,5
2016-11-09T19:59:47.480Z,5
2016-11-09T20:01:00.460Z,5
2016-11-09T20:02:13.458Z,5
2016-11-09T20:03:25.839Z,5
2016-11-09T20:04:38.343Z,5
2016-11-09T20:05:51.761Z,5
2016-11-09T20:07:03.189Z,5
2016-11-09T20:08:16.184Z,5
2016-11-09T20:09:29.648Z,5
2016-11-09T20:10:42.670Z,5
2016-11-09T20:11:56.219Z,5
2016-11-09T20:13:09.177Z,5
2016-11-09T20:14:21.582Z,5
2016-11-09T20:15:34.386Z,5
2016-11-09T20:16:47.991Z,10
2016-11-09T20:18:00.949Z,10
2016-11-09T20:19:12.912Z,10
2016-11-09T20:20:25.368Z,10
2016-11-09T20:21:37.798Z,10
2016-11-09T20:22:50.223Z,5
2016-11-09T20:24:01.702Z,5
2016-11-09T20:25:14.670Z,5
2016-11-09T20:26:26.726Z,5
2016-11-09T20:27:39.738Z,5
2016-11-09T20:28:52.212Z,5
2016-11-09T20:30:04.146Z,5
2016-11-09T20:31:17.171Z,5
2016-11-09T20:32:29.623Z,5
2016-11-09T20:33:42.584Z,5
2016-11-09T20:34:55.499Z,5
2016-11-09T20:36:08.994Z,5
2016-11-09T20:37:22.387Z,5
2016-11-09T20:38:34.230Z,10
2016-11-09T20:39:46.715Z,10
2016-11-09T20:40:59.696Z,10
2016-11-09T20:42:13.166Z,15
2016-11-09T20:43:26.704Z,15
2016-11-09T20:44:39.184Z,15
2016-11-09T20:47:04.339Z,15
2016-11-09T20:48:16.894Z,15
2016-11-09T20:49:29.864Z,15
2016-11-09T20:50:42.990Z,15
2016-11-09T20:51:56.569Z,15
2016-11-09T20:53:09.000Z,10
2016-11-09T20:54:21.995Z,10
2016-11-09T20:55:34.944Z,10
2016-11-09T20:56:47.434Z,10
2016-11-09T20:58:00.962Z,10
2016-11-09T20:59:14.844Z,10
2016-11-09T21:00:27.860Z,5
2016-11-09T21:01:39.794Z,10
2016-11-09T21:02:52.744Z,10
2016-11-09T21:04:06.225Z,10
2016-11-09T21:05:19.240Z,10
2016-11-09T21:06:32.790Z,10
2016-11-09T21:07:45.278Z,5
2016-11-09T21:08:57.773Z,5
2016-11-09T21:10:10.869Z,5
2016-11-09T21:11:24.325Z,5
2016-11-09T21:13:08.486Z,5
2016-11-09T21:14:52.586Z,5
2016-11-09T21:16:05.672Z,5
2016-11-09T21:17:18.645Z,5
2016-11-09T21:18:31.131Z,5
2016-11-09T21:19:44.189Z,5
2016-11-09T21:20:56.639Z,5
2016-11-09T21:22:10.095Z,5
2016-11-09T21:23:23.616Z,0
2016-11-09T21:24:36.556Z,0
2016-11-09T21:25:48.948Z,0
2016-11-09T21:27:02.529Z,0
2016-11-09T21:28:15.986Z,0
2016-11-09T21:29:28.428Z,0
2016-11-09T21:30:41.313Z,0
2016-11-09T21:31:54.836Z,0
2016-11-09T21:33:08.342Z,0
2016-11-09T21:34:21.806Z,0
2016-11-09T21:35:35.316Z,0
2016-11-09T21:36:48.313Z,0
2016-11-09T21:38:01.327Z,0
2016-11-09T21:39:13.764Z,0
2016-11-09T21:40:26.179Z,0
2016-11-09T21:41:38.595Z,0
2016-11-09T21:42:50.530Z,0
2016-11-09T21:44:34.603Z,0
2016-11-09T21:45:47.025Z,0
2016-11-09T21:46:59.044Z,0
2016-11-09T21:48:11.577Z,0
2016-11-09T21:49:23.986Z,0
2016-11-09T21:50:36.438Z,0
2016-11-09T21:51:49.463Z,0
2016-11-09T21:53:01.366Z,0
2016-11-09T21:54:12.734Z,0
2016-11-09T21:55:25.191Z,0
2016-11-09T21:56:37.637Z,0
2016-11-09T21:57:50.642Z,0
2016-11-09T21:59:03.203Z,0
2016-11-09T22:00:16.152Z,0
2016-11-09T22:01:29.720Z,0
2016-11-09T22:02:42.223Z,0
2016-11-09T22:03:54.661Z,0
2016-11-09T22:05:06.568Z,0
2016-11-09T22:06:19.531Z,0
2016-11-09T22:07:31.449Z,0
2016-11-09T22:08:44.956Z,0
2016-11-09T22:09:58.015Z,0
2016-11-09T22:11:10.508Z,0
2016-11-09T22:12:22.957Z,0
2016-11-09T22:13:36.470Z,0
2016-11-09T22:14:49.471Z,0
2016-11-09T22:16:02.394Z,0
2016-11-09T22:17:15.370Z,0
2016-11-09T22:18:28.385Z,0
2016-11-09T22:19:41.369Z,0
2016-11-09T22:20:53.893Z,0
2016-11-09T22:22:06.871Z,0
2016-11-09T22:23:19.340Z,0
2016-11-09T22:24:32.779Z,0
2016-11-09T22:25:45.693Z,0
2016-11-09T22:26:58.665Z,0
2016-11-09T22:28:11.050Z,0
2016-11-09T22:29:23.012Z,0
2016-11-09T22:31:07.194Z,0
2016-11-09T22:32:20.140Z,0
2016-11-09T22:33:32.062Z,0
2016-11-09T22:34:44.489Z,0
2016-11-09T22:35:57.512Z,0
2016-11-09T22:37:10.539Z,0
2016-11-09T22:38:22.981Z,0
2016-11-09T22:39:35.980Z,0
2016-11-09T22:40:48.361Z,0
2016-11-09T22:42:01.873Z,0
2016-11-09T22:43:14.824Z,0
2016-11-09T22:44:27.269Z,0
2016-11-09T22:45:39.710Z,0
2016-11-09T22:46:52.667Z,0
2016-11-09T22:48:05.791Z,0
2016-11-09T22:49:18.222Z,0
2016-11-09T22:50:31.175Z,0
2016-11-09T22:51:44.150Z,0
2016-11-09T22:52:56.607Z,0
2016-11-09T22:54:07.951Z,0
2016-11-09T22:55:21.446Z,0
2016-11-09T22:56:33.893Z,0
2016-11-09T22:57:47.352Z,0
2016-11-09T22:59:00.946Z,0
2016-11-09T23:00:13.354Z,0
2016-11-09T23:01:25.736Z,0
2016-11-09T23:02:38.219Z,0
2016-11-09T23:03:51.217Z,0
2016-11-09T23:05:04.219Z,0
2016-11-09T23:06:16.766Z,0
2016-11-09T23:07:28.682Z,0
2016-11-09T23:08:41.100Z,0
2016-11-09T23:09:54.137Z,0
2016-11-09T23:11:06.557Z,0
2016-11-09T23:12:19.583Z,0
2016-11-09T23:13:32.571Z,0
2016-11-09T23:14:46.229Z,0
2016-11-09T23:15:59.261Z,0
2016-11-09T23:17:11.714Z,0
2016-11-09T23:18:24.593Z,0
2016-11-09T23:19:37.023Z,0
2016-11-09T23:20:50.092Z,0
2016-11-09T23:22:03.615Z,0
2016-11-09T23:23:16.033Z,0
2016-11-09T23:24:29.009Z,0
2016-11-09T23:25:42.021Z,0
2016-11-09T23:26:55.636Z,0
2016-11-09T23:28:09.164Z,0
2016-11-09T23:29:21.695Z,0
2016-11-09T23:30:34.788Z,0
2016-11-09T23:31:47.458Z,0
2016-11-09T23:32:59.861Z,0
2016-11-09T23:34:13.459Z,0
2016-11-09T23:35:26.440Z,0
2016-11-09T23:36:38.942Z,0
2016-11-09T23:37:50.897Z,0
2016-11-09T23:39:03.898Z,0
2016-11-09T23:40:15.846Z,0
2016-11-09T23:41:28.835Z,0
2016-11-09T23:42:41.418Z,0
2016-11-09T23:43:53.817Z,0
2016-11-09T23:45:07.290Z,0
2016-11-09T23:46:20.237Z,0
2016-11-09T23:47:32.252Z,0
2016-11-09T23:48:44.658Z,0
2016-11-09T23:49:56.592Z,0
2016-11-09T23:51:09.025Z,0
2016-11-09T23:52:21.996Z,0
2016-11-09T23:53:34.503Z,0
2016-11-09T23:54:48.012Z,0
2016-11-09T23:56:01.534Z,0
2016-11-09T23:57:14.511Z,0
2016-11-09T23:58:27.006Z,0
2016-11-09T23:59:40.483Z,0
